createdAt,value
2023-04-16T00:02:30.106Z,100982.31
2023-04-16T00:05:16.784Z,100983.06
2023-04-16T00:08:05.038Z,100981.19
2023-04-16T00:10:51.957Z,100984.16
2023-04-16T00:13:38.573Z,100983.00
2023-04-16T00:16:25.520Z,100990.06
2023-04-16T00:19:12.370Z,100990.84
2023-04-16T00:21:59.276Z,100991.34
2023-04-16T00:24:47.361Z,100987.75
2023-04-16T00:27:34.175Z,100989.31
2023-04-16T00:30:21.112Z,100997.41
2023-04-16T00:33:09.422Z,100993.38
2023-04-16T00:35:56.163Z,100985.97
2023-04-16T00:38:42.932Z,100989.53
2023-04-16T00:41:31.218Z,100986.03
2023-04-16T00:44:17.862Z,100990.06
2023-04-16T00:47:05.280Z,100994.88
2023-04-16T00:49:56.404Z,100932.94
2023-04-16T00:52:44.226Z,100987.13
2023-04-16T00:55:30.985Z,100989.44
2023-04-16T00:58:19.595Z,100993.88
2023-04-16T01:01:06.855Z,100991.47
2023-04-16T01:03:53.426Z,100989.84
2023-04-16T01:06:40.041Z,100991.91
2023-04-16T01:09:26.840Z,101000.06
2023-04-16T01:12:13.868Z,101006.81
2023-04-16T01:15:01.727Z,101003.38
2023-04-16T01:17:48.891Z,101000.13
2023-04-16T01:20:37.666Z,101004.31
2023-04-16T01:23:24.477Z,101001.28
2023-04-16T01:26:11.181Z,101007.72
2023-04-16T01:28:57.974Z,101020.44
2023-04-16T01:31:46.740Z,101017.00
2023-04-16T01:34:41.359Z,101013.09
2023-04-16T01:37:32.041Z,101017.44
2023-04-16T01:40:18.698Z,101015.53
2023-04-16T01:43:05.849Z,101018.34
2023-04-16T01:45:53.626Z,101021.06
2023-04-16T01:48:40.582Z,101019.16
2023-04-16T01:51:27.438Z,101022.25
2023-04-16T01:54:15.475Z,101016.69
2023-04-16T01:57:03.228Z,101029.28
2023-04-16T01:59:49.803Z,101026.84
2023-04-16T02:02:37.461Z,101028.81
2023-04-16T02:05:24.484Z,101028.81
2023-04-16T02:08:11.357Z,101028.09
2023-04-16T02:11:01.074Z,101036.59
2023-04-16T02:13:47.786Z,101037.91
2023-04-16T02:16:35.910Z,101035.69
2023-04-16T02:19:31.379Z,101034.06
2023-04-16T02:22:18.291Z,101038.06
2023-04-16T02:25:05.664Z,101039.31
2023-04-16T02:27:53.838Z,101034.16
2023-04-16T02:30:50.204Z,101043.19
2023-04-16T02:33:38.452Z,101042.88
2023-04-16T02:36:25.699Z,101047.31
2023-04-16T02:39:15.400Z,101050.09
2023-04-16T02:42:02.764Z,101048.13
2023-04-16T02:44:50.938Z,101047.06
2023-04-16T02:47:37.793Z,101045.16
2023-04-16T02:50:24.490Z,101051.66
2023-04-16T02:53:11.662Z,101060.41
2023-04-16T02:55:58.559Z,101058.59
2023-04-16T02:58:45.123Z,101056.59
2023-04-16T03:01:33.305Z,101062.84
2023-04-16T03:04:20.104Z,101053.94
2023-04-16T03:07:06.857Z,101062.78
2023-04-16T03:09:53.549Z,101058.53
2023-04-16T03:12:40.672Z,101066.63
2023-04-16T03:15:27.755Z,101066.25
2023-04-16T03:18:15.873Z,101069.97
2023-04-16T03:21:02.553Z,101066.69
2023-04-16T03:23:49.366Z,101074.75
2023-04-16T03:26:36.159Z,101075.38
2023-04-16T03:29:22.808Z,101073.47
2023-04-16T03:32:09.680Z,101075.66
2023-04-16T03:34:58.539Z,101068.59
2023-04-16T03:37:45.208Z,101073.41
2023-04-16T03:40:32.438Z,101068.63
2023-04-16T03:43:20.779Z,101074.75
2023-04-16T03:46:07.944Z,101067.44
2023-04-16T03:48:54.673Z,101079.16
2023-04-16T03:51:43.356Z,101076.50
2023-04-16T03:54:30.783Z,101089.28
2023-04-16T03:57:28.187Z,101088.91
2023-04-16T04:00:19.861Z,101095.47
2023-04-16T04:03:29.677Z,101098.28
2023-04-16T04:06:16.658Z,101094.91
2023-04-16T04:09:05.131Z,101099.81
2023-04-16T04:11:52.681Z,101098.28
2023-04-16T04:14:40.136Z,101100.28
2023-04-16T04:17:27.058Z,101110.84
2023-04-16T04:20:13.889Z,101117.16
2023-04-16T04:23:04.020Z,101111.56
2023-04-16T04:25:52.145Z,101115.34
2023-04-16T04:28:38.852Z,101116.06
2023-04-16T04:31:25.705Z,101123.63
2023-04-16T04:34:12.353Z,101125.63
2023-04-16T04:36:59.099Z,101129.53
2023-04-16T04:39:46.706Z,101129.16
2023-04-16T04:42:34.480Z,101131.81
2023-04-16T04:45:21.282Z,101129.19
2023-04-16T04:48:08.320Z,101134.19
2023-04-16T04:50:54.996Z,101133.63
2023-04-16T04:53:41.754Z,101138.91
2023-04-16T04:56:28.596Z,101136.16
2023-04-16T04:59:16.656Z,101139.16
2023-04-16T05:02:04.423Z,101145.91
2023-04-16T05:04:51.219Z,101145.69
2023-04-16T05:07:37.892Z,101149.47
2023-04-16T05:10:24.581Z,101146.81
2023-04-16T05:13:11.302Z,101159.09
2023-04-16T05:15:59.805Z,101149.47
2023-04-16T05:18:46.249Z,101160.31
2023-04-16T05:21:34.858Z,101166.53
2023-04-16T05:24:24.604Z,101169.84
2023-04-16T05:27:14.088Z,101169.81
2023-04-16T05:30:04.212Z,101180.97
2023-04-16T05:32:52.940Z,101180.03
2023-04-16T05:35:39.528Z,101174.75
2023-04-16T05:38:26.397Z,101175.53
2023-04-16T05:41:13.190Z,101177.72
2023-04-16T05:44:05.129Z,101176.16
2023-04-16T05:46:52.696Z,101180.09
2023-04-16T05:49:40.826Z,101181.06
2023-04-16T05:52:27.647Z,101181.78
2023-04-16T05:55:14.265Z,101182.63
2023-04-16T05:58:00.973Z,101186.94
2023-04-16T06:00:50.435Z,101183.75
2023-04-16T06:03:37.414Z,101185.59
2023-04-16T06:06:27.460Z,101193.22
2023-04-16T06:09:14.123Z,101192.31
2023-04-16T06:12:01.168Z,101192.59
2023-04-16T06:14:47.767Z,101191.59
2023-04-16T06:17:34.571Z,101193.00
2023-04-16T06:20:21.237Z,101197.91
2023-04-16T06:23:09.567Z,101200.28
2023-04-16T06:25:56.678Z,101207.31
2023-04-16T06:28:43.369Z,101211.19
2023-04-16T06:31:31.050Z,101213.19
2023-04-16T06:34:18.062Z,101217.53
2023-04-16T06:37:04.913Z,101220.59
2023-04-16T06:39:53.111Z,101224.25
2023-04-16T06:42:39.917Z,101217.34
2023-04-16T06:45:26.795Z,101220.81
2023-04-16T06:48:13.616Z,101226.94
2023-04-16T06:51:01.485Z,101216.25
2023-04-16T06:53:48.099Z,101224.91
2023-04-16T06:56:37.531Z,101221.94
2023-04-16T06:59:24.308Z,101230.47
2023-04-16T07:02:11.790Z,101235.91
2023-04-16T07:04:58.568Z,101232.41
2023-04-16T07:07:45.302Z,101242.13
2023-04-16T07:10:32.533Z,101241.88
2023-04-16T07:13:20.551Z,101239.78
2023-04-16T07:16:07.508Z,101243.16
2023-04-16T07:18:54.180Z,101240.16
2023-04-16T07:21:42.065Z,101162.06
2023-04-16T07:24:28.601Z,101247.72
2023-04-16T07:27:15.498Z,101249.09
2023-04-16T07:30:09.682Z,101252.97
2023-04-16T07:32:56.682Z,101254.97
2023-04-16T07:35:43.321Z,101253.38
2023-04-16T07:38:30.722Z,101255.53
2023-04-16T07:41:17.350Z,101257.81
2023-04-16T07:44:04.791Z,101257.81
2023-04-16T07:46:52.737Z,101266.91
2023-04-16T07:49:39.718Z,101272.69
2023-04-16T07:52:26.823Z,101265.56
2023-04-16T07:55:13.562Z,101266.59
2023-04-16T07:58:00.570Z,101273.69
2023-04-16T08:00:48.125Z,101275.19
2023-04-16T08:03:37.266Z,101280.94
2023-04-16T08:06:23.863Z,101282.63
2023-04-16T08:09:10.938Z,101280.41
2023-04-16T08:11:57.645Z,101278.88
2023-04-16T08:14:45.127Z,101290.38
2023-04-16T08:17:37.081Z,101294.03
2023-04-16T08:20:29.002Z,101298.66
2023-04-16T08:23:15.934Z,101296.44
2023-04-16T08:26:02.688Z,101302.56
2023-04-16T08:28:49.139Z,101299.09
2023-04-16T08:31:36.094Z,101296.75
2023-04-16T08:34:22.839Z,101301.09
2023-04-16T08:37:11.040Z,101308.84
2023-04-16T08:39:57.658Z,101306.41
2023-04-16T08:42:49.185Z,101316.78
2023-04-16T08:45:36.334Z,101314.78
2023-04-16T08:48:24.126Z,101314.06
2023-04-16T08:51:12.181Z,101315.88
2023-04-16T08:54:03.924Z,101327.22
2023-04-16T08:56:52.271Z,101319.34
2023-04-16T08:59:41.279Z,101314.72
2023-04-16T09:02:28.385Z,101320.81
2023-04-16T09:05:18.040Z,101326.44
2023-04-16T09:08:06.263Z,101333.91
2023-04-16T09:10:54.743Z,101333.81
2023-04-16T09:13:41.501Z,101335.94
2023-04-16T09:16:31.347Z,101345.91
2023-04-16T09:19:18.048Z,101340.03
2023-04-16T09:22:05.009Z,101343.53
2023-04-16T09:24:51.712Z,101341.84
2023-04-16T09:27:40.374Z,101324.88
2023-04-16T09:30:28.048Z,101345.31
2023-04-16T09:33:17.516Z,101304.50
2023-04-16T09:36:04.345Z,101343.56
2023-04-16T09:38:52.283Z,101348.00
2023-04-16T09:41:40.070Z,101351.59
2023-04-16T09:44:36.299Z,101345.69
2023-04-16T09:47:23.956Z,101346.06
2023-04-16T09:50:17.725Z,101354.47
2023-04-16T09:53:04.925Z,101352.97
2023-04-16T09:55:51.768Z,101351.00
2023-04-16T09:58:39.164Z,101354.66
2023-04-16T10:01:27.573Z,101356.56
2023-04-16T10:04:14.370Z,101352.25
2023-04-16T10:07:05.584Z,101355.47
2023-04-16T10:09:52.690Z,101356.06
2023-04-16T10:12:39.617Z,101360.25
2023-04-16T10:15:26.771Z,101359.06
2023-04-16T10:18:15.897Z,101362.81
2023-04-16T10:21:03.138Z,101361.88
2023-04-16T10:23:49.850Z,101376.28
2023-04-16T10:26:37.831Z,101367.13
2023-04-16T10:29:26.498Z,101365.66
2023-04-16T10:32:13.729Z,101363.44
2023-04-16T10:35:01.876Z,101363.34
2023-04-16T10:37:48.707Z,101374.13
2023-04-16T10:40:36.467Z,101379.81
2023-04-16T10:43:23.246Z,101384.28
2023-04-16T10:46:24.144Z,101372.81
2023-04-16T10:49:15.148Z,101381.81
2023-04-16T10:52:10.664Z,101379.28
2023-04-16T10:55:01.881Z,101382.84
2023-04-16T10:57:53.650Z,101387.19
2023-04-16T11:00:51.989Z,101383.06
2023-04-16T11:03:44.873Z,101390.72
2023-04-16T11:06:32.288Z,101393.03
2023-04-16T11:09:49.796Z,101387.19
2023-04-16T11:12:38.197Z,101388.56
2023-04-16T11:15:31.261Z,101404.50
2023-04-16T11:18:20.664Z,101403.88
2023-04-16T11:21:10.322Z,101404.81
2023-04-16T11:23:58.968Z,101410.91
2023-04-16T11:26:46.861Z,101412.09
2023-04-16T11:29:33.809Z,101414.38
2023-04-16T11:32:23.013Z,101421.91
2023-04-16T11:35:15.414Z,101425.53
2023-04-16T11:38:04.243Z,101420.28
2023-04-16T11:40:51.660Z,101423.25
2023-04-16T11:43:39.531Z,101426.84
2023-04-16T11:46:39.434Z,101425.94
2023-04-16T11:49:29.729Z,101427.34
2023-04-16T11:52:28.344Z,101434.41
2023-04-16T11:55:15.564Z,101428.97
2023-04-16T11:58:13.449Z,101438.53
2023-04-16T12:01:02.913Z,101437.78
2023-04-16T12:03:49.970Z,101443.56
2023-04-16T12:06:36.951Z,101442.50
2023-04-16T12:09:24.318Z,101444.41
2023-04-16T12:12:27.564Z,101447.28
2023-04-16T12:15:14.852Z,101452.94
2023-04-16T12:18:09.676Z,101451.09
2023-04-16T12:20:56.525Z,101452.88
2023-04-16T12:23:43.287Z,101450.47
2023-04-16T12:26:38.486Z,101446.81
2023-04-16T12:29:27.612Z,101454.81
2023-04-16T12:32:23.610Z,101446.47
2023-04-16T12:35:12.085Z,101453.19
2023-04-16T12:37:58.514Z,101449.59
2023-04-16T12:40:45.998Z,101449.94
2023-04-16T12:43:32.734Z,101444.75
2023-04-16T12:46:19.486Z,101440.13
2023-04-16T12:49:06.859Z,101447.00
2023-04-16T12:51:55.088Z,101450.72
2023-04-16T12:54:41.918Z,101454.03
2023-04-16T12:57:29.575Z,101450.88
2023-04-16T13:00:17.454Z,101445.09
2023-04-16T13:03:04.124Z,101447.50
2023-04-16T13:05:50.863Z,101450.44
2023-04-16T13:08:39.246Z,101456.56
2023-04-16T13:11:26.056Z,101455.88
2023-04-16T13:14:12.496Z,101452.44
2023-04-16T13:16:59.408Z,101455.78
2023-04-16T13:19:46.156Z,101462.25
2023-04-16T13:22:32.900Z,101454.19
2023-04-16T13:25:21.159Z,101458.84
2023-04-16T13:28:07.785Z,101462.50
2023-04-16T13:30:55.577Z,101465.94
2023-04-16T13:33:42.490Z,101467.19
2023-04-16T13:36:30.193Z,101467.94
2023-04-16T13:39:16.592Z,101467.44
2023-04-16T13:42:04.838Z,101471.56
2023-04-16T13:44:54.270Z,101473.94
2023-04-16T13:47:42.595Z,101470.38
2023-04-16T13:50:29.357Z,101473.63
2023-04-16T13:53:15.910Z,101474.47
2023-04-16T13:56:04.090Z,101475.00
2023-04-16T13:58:52.336Z,101474.94
2023-04-16T14:01:39.125Z,101478.88
2023-04-16T14:04:26.180Z,101479.84
2023-04-16T14:07:13.051Z,101483.53
2023-04-16T14:09:59.765Z,101477.78
2023-04-16T14:12:46.900Z,101479.34
2023-04-16T14:15:34.876Z,101472.56
2023-04-16T14:18:21.872Z,101476.31
2023-04-16T14:21:08.442Z,101477.06
2023-04-16T14:23:55.291Z,101477.34
2023-04-16T14:26:44.164Z,101468.00
2023-04-16T14:29:31.840Z,101472.91
2023-04-16T14:32:20.062Z,101483.81
2023-04-16T14:35:08.397Z,101478.06
2023-04-16T14:37:55.438Z,101489.31
2023-04-16T14:40:42.328Z,101477.63
2023-04-16T14:43:29.125Z,101481.66
2023-04-16T14:46:17.776Z,101487.94
2023-04-16T14:49:05.897Z,101494.25
2023-04-16T14:51:52.526Z,101494.97
2023-04-16T14:54:39.350Z,101476.91
2023-04-16T14:57:26.817Z,101491.94
2023-04-16T15:00:17.302Z,101489.63
2023-04-16T15:03:03.885Z,101497.63
2023-04-16T15:05:55.766Z,101495.59
2023-04-16T15:08:42.720Z,101510.75
2023-04-16T15:11:30.259Z,101503.34
2023-04-16T15:14:16.844Z,101504.25
2023-04-16T15:17:04.064Z,101499.03
2023-04-16T15:19:52.172Z,101511.59
2023-04-16T15:22:40.890Z,101505.50
2023-04-16T15:25:27.567Z,101506.44
2023-04-16T15:28:16.775Z,101520.03
2023-04-16T15:31:03.701Z,101512.75
2023-04-16T15:33:50.600Z,101512.94
2023-04-16T15:36:37.090Z,101513.91
2023-04-16T15:39:25.639Z,101517.47
2023-04-16T15:42:13.263Z,101523.44
2023-04-16T15:44:59.783Z,101522.91
2023-04-16T15:47:51.091Z,101526.97
2023-04-16T15:50:37.784Z,101530.88
2023-04-16T15:53:24.331Z,101536.09
2023-04-16T15:56:12.600Z,101533.81
2023-04-16T15:58:59.014Z,101542.16
2023-04-16T16:01:45.991Z,101540.28
2023-04-16T16:04:32.589Z,101549.72
2023-04-16T16:07:20.138Z,101538.59
2023-04-16T16:10:07.912Z,101548.78
2023-04-16T16:12:57.250Z,101553.06
2023-04-16T16:15:44.236Z,101546.66
2023-04-16T16:18:33.003Z,101548.78
2023-04-16T16:21:20.235Z,101552.63
2023-04-16T16:24:07.809Z,101550.97
2023-04-16T16:26:54.439Z,101564.00
2023-04-16T16:29:42.741Z,101555.50
2023-04-16T16:32:29.378Z,101556.50
2023-04-16T16:35:16.074Z,101561.75
2023-04-16T16:38:03.068Z,101562.72
2023-04-16T16:40:50.077Z,101562.56
2023-04-16T16:43:37.113Z,101563.94
2023-04-16T16:46:25.167Z,101567.38
2023-04-16T16:49:12.416Z,101569.31
2023-04-16T16:52:00.182Z,101578.03
2023-04-16T16:54:47.278Z,101570.69
2023-04-16T16:57:35.494Z,101576.56
2023-04-16T17:00:24.437Z,101574.72
2023-04-16T17:03:14.299Z,101576.59
2023-04-16T17:06:01.393Z,101582.34
2023-04-16T17:08:48.966Z,101579.66
2023-04-16T17:11:35.491Z,101581.53
2023-04-16T17:14:22.237Z,101585.97
2023-04-16T17:17:08.983Z,101590.50
2023-04-16T17:19:57.353Z,101587.94
2023-04-16T17:22:44.203Z,101593.13
2023-04-16T17:25:31.107Z,101596.16
2023-04-16T17:28:17.706Z,101597.44
2023-04-16T17:31:04.641Z,101601.53
2023-04-16T17:33:52.262Z,101605.50
2023-04-16T17:36:40.960Z,101602.78
2023-04-16T17:39:27.720Z,101604.00
2023-04-16T17:42:14.541Z,101605.66
2023-04-16T17:45:03.120Z,101617.44
2023-04-16T17:47:49.769Z,101621.13
2023-04-16T17:50:39.385Z,101623.75
2023-04-16T17:53:27.576Z,101624.53
2023-04-16T17:56:14.436Z,101628.06
2023-04-16T17:59:01.461Z,101620.84
2023-04-16T18:01:53.340Z,101632.41
2023-04-16T18:04:42.370Z,101636.28
2023-04-16T18:07:29.723Z,101634.41
2023-04-16T18:10:18.378Z,101638.19
2023-04-16T18:13:05.436Z,101644.28
2023-04-16T18:15:53.169Z,101648.38
2023-04-16T18:18:39.780Z,101651.44
2023-04-16T18:21:27.528Z,101653.34
2023-04-16T18:24:15.844Z,101659.47
2023-04-16T18:27:04.080Z,101656.56
2023-04-16T18:29:51.350Z,101666.78
2023-04-16T18:32:46.827Z,101676.41
2023-04-16T18:35:43.134Z,101674.16
2023-04-16T18:38:31.460Z,101679.31
2023-04-16T18:41:18.428Z,101679.38
2023-04-16T18:44:06.513Z,101680.44
2023-04-16T18:46:53.220Z,101686.66
2023-04-16T18:49:39.850Z,101685.06
2023-04-16T18:52:27.917Z,101692.84
2023-04-16T18:55:14.798Z,101699.19
2023-04-16T18:58:01.492Z,101703.47
2023-04-16T19:00:54.631Z,101677.22
2023-04-16T19:03:42.668Z,101704.16
2023-04-16T19:06:35.361Z,101705.44
2023-04-16T19:09:23.384Z,101705.59
2023-04-16T19:12:10.141Z,101709.16
2023-04-16T19:14:56.960Z,101711.66
2023-04-16T19:17:45.035Z,101709.44
2023-04-16T19:20:35.655Z,101706.84
2023-04-16T19:23:22.299Z,101633.19
2023-04-16T19:26:08.702Z,101703.28
2023-04-16T19:28:55.368Z,101708.53
2023-04-16T19:31:42.296Z,101708.44
2023-04-16T19:34:31.049Z,101710.34
2023-04-16T19:37:17.798Z,101712.81
2023-04-16T19:40:06.043Z,101715.94
2023-04-16T19:42:55.905Z,101725.44
2023-04-16T19:45:44.346Z,101721.66
2023-04-16T19:48:31.866Z,101723.19
2023-04-16T19:51:19.747Z,101722.38
2023-04-16T19:54:06.559Z,101724.19
2023-04-16T19:56:53.350Z,101720.78
2023-04-16T19:59:40.192Z,101729.34
2023-04-16T20:02:27.083Z,101714.94
2023-04-16T20:05:13.946Z,101647.63
2023-04-16T20:08:02.061Z,101726.94
2023-04-16T20:10:48.684Z,101730.25
2023-04-16T20:13:37.597Z,101728.63
2023-04-16T20:16:24.826Z,101726.88
2023-04-16T20:19:11.355Z,101727.25
2023-04-16T20:21:58.541Z,101731.72
2023-04-16T20:24:48.200Z,101726.47
2023-04-16T20:27:35.050Z,101722.31
2023-04-16T20:30:22.622Z,101725.69
2023-04-16T20:33:10.034Z,101725.94
2023-04-16T20:35:56.854Z,101733.16
2023-04-16T20:38:43.756Z,101735.59
2023-04-16T20:41:31.931Z,101738.03
2023-04-16T20:44:18.906Z,101736.22
2023-04-16T20:47:06.006Z,101736.53
2023-04-16T20:49:53.002Z,101741.03
2023-04-16T20:52:39.785Z,101748.03
2023-04-16T20:55:26.844Z,101756.69
2023-04-16T20:58:14.782Z,101745.25
2023-04-16T21:01:02.002Z,101755.19
2023-04-16T21:03:48.640Z,101763.00
2023-04-16T21:06:38.556Z,101760.81
2023-04-16T21:09:25.449Z,101752.66
2023-04-16T21:12:12.166Z,101758.03
2023-04-16T21:15:00.172Z,101758.03
2023-04-16T21:17:51.173Z,101753.78
2023-04-16T21:20:40.341Z,101685.50
2023-04-16T21:23:27.051Z,101755.25
2023-04-16T21:26:18.105Z,101756.22
2023-04-16T21:29:11.967Z,101755.66
2023-04-16T21:32:01.170Z,101758.00
2023-04-16T21:34:48.387Z,101757.72
2023-04-16T21:37:36.291Z,101758.28
2023-04-16T21:40:23.548Z,101752.84
2023-04-16T21:43:10.261Z,101752.13
2023-04-16T21:45:57.307Z,101754.63
2023-04-16T21:48:45.454Z,101751.25
2023-04-16T21:51:31.864Z,101753.88
2023-04-16T21:54:20.253Z,101748.56
2023-04-16T21:57:06.852Z,101748.78
2023-04-16T21:59:53.619Z,101754.63
2023-04-16T22:02:41.834Z,101757.41
2023-04-16T22:05:31.728Z,101754.00
2023-04-16T22:08:24.846Z,101756.66
2023-04-16T22:11:11.985Z,101758.63
2023-04-16T22:13:58.705Z,101759.34
2023-04-16T22:16:46.084Z,101726.91
2023-04-16T22:19:34.891Z,101758.53
2023-04-16T22:22:23.057Z,101762.88
2023-04-16T22:25:10.217Z,101758.50
2023-04-16T22:27:56.757Z,101762.94
2023-04-16T22:30:43.481Z,101770.22
2023-04-16T22:33:30.636Z,101768.16
2023-04-16T22:36:17.107Z,101781.56
2023-04-16T22:39:08.555Z,101770.09
2023-04-16T22:41:56.125Z,101771.75
2023-04-16T22:44:42.997Z,101770.09
2023-04-16T22:47:29.932Z,101774.78
2023-04-16T22:50:16.803Z,101747.50
2023-04-16T22:53:03.406Z,101765.69
2023-04-16T22:55:51.614Z,101778.97
2023-04-16T22:58:38.537Z,101781.59
2023-04-16T23:01:25.142Z,101771.13
2023-04-16T23:04:12.026Z,101775.53
2023-04-16T23:06:58.726Z,101771.19
2023-04-16T23:09:45.600Z,101779.84
2023-04-16T23:12:33.866Z,101779.00
2023-04-16T23:15:20.836Z,101781.78
2023-04-16T23:18:07.688Z,101780.69
2023-04-16T23:20:54.827Z,101778.28
2023-04-16T23:23:41.648Z,101777.19
2023-04-16T23:26:28.360Z,101778.28
2023-04-16T23:29:16.595Z,101773.00
2023-04-16T23:32:03.335Z,101786.22
2023-04-16T23:34:50.227Z,101779.25
2023-04-16T23:37:37.088Z,101774.84
2023-04-16T23:40:23.866Z,101778.63
2023-04-16T23:43:10.772Z,101779.41
2023-04-16T23:45:58.813Z,101774.25
2023-04-16T23:48:45.638Z,101776.09
2023-04-16T23:51:32.678Z,101776.97
2023-04-16T23:54:19.199Z,101774.34
2023-04-16T23:57:06.048Z,101777.94
2023-04-16T23:59:52.837Z,101783.13
